Aviation Digital Data Service (ADDS)

Output produced by METARs form (1210 UTC 24 February 2018)
found at http://aviationweather.gov/adds/metars/
 
EFJY 241150Z AUTO 33009KT 9999 -SHSN FEW015 M13/M16 Q1038
EFJY 241120Z AUTO 34009KT CAVOK M13/M16 Q1038
EFJY 241050Z AUTO 34009KT 9999 -UP NCD M14/M17 Q1038
EFJY 241020Z AUTO 33007KT CAVOK M15/M18 Q1039
EFJY 240950Z AUTO 32007KT CAVOK M16/M18 Q1038
EFJY 240920Z AUTO 33006KT CAVOK M17/M19 Q1038
EFJY 240850Z AUTO 33006KT CAVOK M17/M20 Q1038
EFJY 240820Z AUTO 33005KT 9999 -SHSN NCD M18/M20 Q1038
EFJY 240750Z AUTO 36004KT 9999 -SHSN NCD M19/M21 Q1038
EFJY 240720Z AUTO 33007KT 8000 -SHSN BKN009 M20/M22 Q1038
EFJY 240650Z AUTO 35004KT 9999 -SHSN FEW013 M21/M23 Q1038
EFJY 240620Z AUTO 31004KT 9999 -SHSN NCD M21/M23 Q1038
EFJY 240550Z AUTO 31007KT 9999 -SHSN NCD M21/M23 Q1037
EFJY 240520Z AUTO 32007KT 9999 -SG NCD M21/M23 Q1037
EFJY 240450Z AUTO 29003KT CAVOK M20/M23 Q1037
EFJY 240420Z AUTO 33006KT CAVOK M20/M22 Q1037
EFJY 240350Z AUTO VRB02KT CAVOK M20/M22 Q1037
EFJY 240320Z AUTO 36005KT CAVOK M20/M22 Q1036
EFJY 240250Z AUTO 34007KT CAVOK M20/M22 Q1036
EFJY 240220Z AUTO 32006KT 9999 -SHSN NCD M20/M21 Q1036
EFJY 240150Z AUTO 35003KT CAVOK M19/M21 Q1036
EFJY 240120Z AUTO 33005KT CAVOK M19/M21 Q1036
EFJY 240050Z AUTO 34006KT CAVOK M19/M21 Q1036
EFJY 240020Z AUTO 34005KT CAVOK M18/M20 Q1036
EFJY 232350Z AUTO 01005KT CAVOK M17/M19 Q1035
EFJY 232320Z AUTO 35005KT CAVOK M18/M20 Q1035
EFJY 232250Z AUTO 02005KT CAVOK M17/M19 Q1035
EFJY 232220Z AUTO 35005KT CAVOK M17/M19 Q1035
EFJY 232150Z AUTO 34006KT 9999 -SHSN NCD M18/M20 Q1034
EFJY 232120Z AUTO 01005KT 9999 -SHSN NCD M17/M18 Q1034
EFJY 232050Z AUTO 01005KT 9999 -SG NCD M16/M18 Q1034
EFJY 232020Z AUTO 35006KT CAVOK M16/M17 Q1034
EFJY 231950Z AUTO 01005KT CAVOK M15/M17 Q1033
EFJY 231920Z AUTO 35005KT CAVOK M15/M17 Q1033
EFJY 231850Z AUTO 35005KT CAVOK M15/M17 Q1033
EFJY 231820Z AUTO 34003KT CAVOK M15/M17 Q1033
EFJY 231750Z AUTO 34005KT CAVOK M15/M16 Q1033
EFJY 231720Z AUTO 35004KT CAVOK M14/M16 Q1032
EFJY 231650Z AUTO 35005KT CAVOK M14/M16 Q1032
EFJY 231620Z AUTO 35006KT CAVOK M14/M16 Q1032
EFJY 231550Z AUTO 01005KT CAVOK M13/M15 Q1032
EFJY 231520Z AUTO 36007KT CAVOK M12/M15 Q1031
EFJY 231450Z AUTO 34006KT CAVOK M12/M15 Q1031
EFJY 231420Z AUTO 34007KT CAVOK M12/M15 Q1031
EFJY 231350Z 35006KT CAVOK M12/M15 Q1031
EFJY 231320Z 35007KT CAVOK M12/M15 Q1030
EFJY 231250Z 01005KT CAVOK M11/M15 Q1030
EFJY 231220Z 01005KT CAVOK M11/M15 Q1030
EFJY 231150Z 04007KT CAVOK M11/M15 Q1030
EFJY 231120Z 02007KT CAVOK M12/M16 Q1030
EFJY 231050Z 02006KT CAVOK M12/M15 Q1030
EFJY 231020Z 03005KT CAVOK M13/M15 Q1029
EFJY 230950Z 03006KT 9999 FEW012 M13/M15 Q1029
EFJY 230920Z 04005KT CAVOK M13/M15 Q1029
EFJY 230850Z VRB03KT 260V350 CAVOK M15/M17 Q1029
EFJY 230820Z 30004KT CAVOK M16/M18 Q1028
EFJY 230750Z 36003KT CAVOK M17/M19 Q1028
EFJY 230720Z 36002KT 9999 -SHSN FEW017 M18/M20 Q1028
EFJY 230650Z 00000KT 9999 VCSH FEW020 M19/M22 Q1028
EFJY 230620Z 00000KT 9999 -SHSN FEW020 SCT200 M18/M20 Q1027
EFJY 230550Z AUTO VRB02KT 9999 -SN FEW024 OVC064 M21/M23 Q1027
EFJY 230520Z AUTO 32003KT 8000 -SN FEW112 M20/M22 Q1027
EFJY 230450Z AUTO 32003KT 9999 -SHSN BKN010 M21/M23 Q1027 RESHSN
EFJY 230420Z AUTO 30003KT 1400 SHSN OVC010 M22/M24 Q1027
EFJY 230350Z AUTO VRB02KT 9999 -SHSN FEW006 M22/M25 Q1026
EFJY 230320Z AUTO VRB02KT 9999 FEW007 M21/M24 Q1026
EFJY 230250Z AUTO 32002KT 9999 FEW040 M21/M24 Q1026
EFJY 230220Z AUTO 30003KT 9999 -SHSN FEW014 M21/M23 Q1026
EFJY 230150Z AUTO 31003KT 9999 -SN FEW008 BKN014 BKN040 M21/M23 Q1026
EFJY 230120Z AUTO VRB02KT 2400 -SHSN BKN009 BKN018 M19/M20 Q1026
EFJY 230050Z AUTO 32003KT 1600 -SHSN BKN017 M19/M22 Q1026
EFJY 230020Z AUTO VRB01KT 1700 -SHSN FEW009 M19/M21 Q1026